»·PEaware :: N5656Y KSBA-KBUR

N5656Y :: KSBA-KBUR

FLIGHT INFORMATION

Flight Status: Arrived
Operator: Privately registered:
United States
More flights under this callsign
Pilot: Anonymous 20359 (20359)
Aircraft: CESSNA 172 SKYHAWK
(C172)
More flights by this aircraft type
Origin: KSBA Santa Barbara Mun
United States
Destination: KBUR Bob Hope-Burbank
United States
More flights between these airports :: More routes between these airports
Route: +
File this flight plan on PilotEdge
Remarks:
Altitude:
(Current/Filed)
7,500ft
Speed:
(Current/Filed)
120kts
Departed: 14-Sep-18 09:04 AM
Arrived: 14-Sep-18 09:49 AM
Distance/Time
Traveled:
75nm/0:45
Distance/Time
To Go:
Arrived

Flight Plot

Page will automatically refresh every two minutes.


Map Options




Map Legend


Flown Route
Filed Route
Departure Airport
Arrival Airport
Navaid (VOR, NDB)
Fix

Horizontal Profiles

Position Reports

Time Latitude Longitude Heading Altitude Ground
Speed
14-Sep-18 08:54 34.426020 -119.837398 88 10ft 0kts
14-Sep-18 08:55 34.426020 -119.837398 88 10ft 0kts
14-Sep-18 08:56 34.426020 -119.837398 88 10ft 0kts
14-Sep-18 08:57 34.426020 -119.837398 88 10ft 0kts
14-Sep-18 08:58 34.426020 -119.837398 88 10ft 0kts
14-Sep-18 08:59 34.426020 -119.837398 88 10ft 0kts
14-Sep-18 09:00 34.426020 -119.837398 88 10ft 0kts
14-Sep-18 09:01 34.426020 -119.837398 88 10ft 0kts
14-Sep-18 09:02 34.426020 -119.837398 88 10ft 0kts
14-Sep-18 09:03 34.427159 -119.835234 344 10ft 0kts
14-Sep-18 09:04 34.427159 -119.835234 344 10ft 0kts
14-Sep-18 09:05 34.427777 -119.835760 291 10ft 13kts
14-Sep-18 09:06 34.426108 -119.862138 263 350ft 111kts
14-Sep-18 09:07 34.422763 -119.900103 263 1073ft 104kts
14-Sep-18 09:08 34.416494 -119.931694 210 1987ft 104kts
14-Sep-18 09:09 34.390111 -119.912356 133 2069ft 129kts
14-Sep-18 09:10 34.374020 -119.877613 71 2387ft 112kts
14-Sep-18 09:11 34.383663 -119.845774 68 3377ft 93kts
14-Sep-18 09:12 34.392291 -119.817789 68 4318ft 88kts
14-Sep-18 09:13 34.400809 -119.789981 68 5165ft 90kts
14-Sep-18 09:14 34.406926 -119.760559 83 5961ft 90kts
14-Sep-18 09:15 34.406827 -119.730647 93 6756ft 87kts
14-Sep-18 09:16 34.404174 -119.701460 96 7481ft 89kts
14-Sep-18 09:17 34.399435 -119.665402 99 7564ft 123kts
14-Sep-18 09:18 34.393394 -119.623866 99 7563ft 126kts
14-Sep-18 09:19 34.387199 -119.582045 99 7563ft 126kts
14-Sep-18 09:20 34.380960 -119.540172 99 7563ft 126kts
14-Sep-18 09:21 34.374713 -119.498346 99 7563ft 126kts
14-Sep-18 09:22 34.368442 -119.456493 99 7563ft 126kts
14-Sep-18 09:23 34.362149 -119.414607 99 7563ft 126kts
14-Sep-18 09:24 34.355847 -119.372763 99 7563ft 126kts
14-Sep-18 09:25 34.349682 -119.331912 100 7572ft 126kts
14-Sep-18 09:26 34.343351 -119.290104 100 7569ft 126kts
14-Sep-18 09:27 34.337011 -119.248350 100 7569ft 126kts
14-Sep-18 09:28 34.330662 -119.206556 100 7569ft 126kts
14-Sep-18 09:29 34.324293 -119.164817 100 7569ft 126kts
14-Sep-18 09:30 34.317894 -119.122909 100 7569ft 126kts
14-Sep-18 09:31 34.311496 -119.081134 100 7569ft 126kts
14-Sep-18 09:32 34.305095 -119.039442 100 7569ft 126kts
14-Sep-18 09:33 34.298656 -118.997586 100 7569ft 126kts
14-Sep-18 09:34 34.292208 -118.955800 100 7569ft 126kts
14-Sep-18 09:35 34.286219 -118.913964 99 7569ft 126kts
14-Sep-18 09:36 34.280003 -118.872213 100 7569ft 126kts
14-Sep-18 09:37 34.273551 -118.830339 100 7569ft 126kts
14-Sep-18 09:38 34.267069 -118.788572 100 7569ft 126kts
14-Sep-18 09:39 34.260580 -118.746793 100 7569ft 126kts
14-Sep-18 09:40 34.254093 -118.705100 100 7569ft 126kts
14-Sep-18 09:41 34.247574 -118.663376 100 7569ft 126kts
14-Sep-18 09:42 34.241050 -118.621714 99 7569ft 126kts
14-Sep-18 09:43 34.234494 -118.579831 100 7569ft 126kts
14-Sep-18 09:44 34.227932 -118.538182 100 7569ft 126kts
14-Sep-18 09:45 34.221102 -118.494828 100 7155ft 145kts
14-Sep-18 09:46 34.236545 -118.461028 25 5601ft 125kts
14-Sep-18 09:47 34.256453 -118.433418 96 3590ft 123kts
14-Sep-18 09:48 34.255366 -118.398496 82 2968ft 96kts
14-Sep-18 09:49 34.239975 -118.374502 152 2477ft 111kts
14-Sep-18 09:50 34.213017 -118.360654 164 1041ft 93kts
14-Sep-18 09:51 34.199158 -118.356590 143 712ft 14kts
14-Sep-18 09:52 34.198917 -118.356067 99 709ft 0kts
14-Sep-18 09:53 34.198917 -118.356067 99 709ft 0kts
14-Sep-18 09:54 34.198495 -118.356899 277 710ft 16kts
14-Sep-18 09:55 34.201843 -118.359237 293 728ft 13kts
14-Sep-18 09:56 34.201901 -118.359403 291 729ft 0kts

Navigation Log

Ident Type
Flight plan parsing failed, navigation log unavailable